Time;durP1;ratioP1;P1;durP2;ratioP2;P2;SDS_P1;SDS_P2;PMS_P1;PMS_P2;Temp;Humidity;BMP_temperature;BMP_pressure;BME280_temperature;BME280_humidity;BME280_pressure;Samples;Min_cycle;Max_cycle;Signal;HPM_P1;HPM_P2
2021/04/23 00:00:12;;;;;;;;;;;19.60;39.50;;;;;;505503;235;1665;-44
2021/04/23 00:02:14;;;;;;;;;;;19.70;39.50;;;;;;505319;234;1551;-45
2021/04/23 00:04:15;;;;;;;;;;;19.60;39.50;;;;;;505352;235;1092;-44
2021/04/23 00:06:16;;;;;;;;;;;19.60;39.60;;;;;;505244;236;1055;-44
2021/04/23 00:08:17;;;;;;;;;;;19.50;39.60;;;;;;505249;236;1059;-44
2021/04/23 00:10:20;;;;;;;;;;;19.60;39.70;;;;;;505705;236;1105;-44
2021/04/23 00:12:20;;;;;;;;;;;19.60;39.60;;;;;;505454;235;2181;-44
2021/04/23 00:14:21;;;;;;;;;;;19.60;39.70;;;;;;505365;235;1065;-44
2021/04/23 00:16:23;;;;;;;;;;;19.50;39.60;;;;;;505318;235;1035;-44
2021/04/23 00:18:24;;;;;;;;;;;19.50;39.70;;;;;;505863;235;1024;-44
2021/04/23 00:20:26;;;;;;;;;;;19.50;39.70;;;;;;505710;234;1274;-44
2021/04/23 00:22:26;;;;;;;;;;;19.50;39.70;;;;;;505769;235;2227;-44
2021/04/23 00:24:28;;;;;;;;;;;19.50;39.80;;;;;;505867;235;995;-44
2021/04/23 00:26:29;;;;;;;;;;;19.50;39.80;;;;;;505350;232;1306;-44
2021/04/23 00:28:30;;;;;;;;;;;19.50;39.80;;;;;;505355;235;1087;-44
2021/04/23 00:30:32;;;;;;;;;;;19.50;39.80;;;;;;505692;236;1161;-44
2021/04/23 00:32:33;;;;;;;;;;;19.50;39.80;;;;;;505472;236;2134;-44
2021/04/23 00:34:34;;;;;;;;;;;19.50;39.90;;;;;;505868;235;1019;-44
2021/04/23 00:36:36;;;;;;;;;;;19.40;39.90;;;;;;505516;235;1091;-44
2021/04/23 00:38:37;;;;;;;;;;;19.40;39.90;;;;;;505785;235;1002;-44
2021/04/23 00:40:39;;;;;;;;;;;19.40;39.80;;;;;;505350;235;1029;-44
2021/04/23 00:42:39;;;;;;;;;;;19.40;39.80;;;;;;505322;235;1960;-44
2021/04/23 00:44:41;;;;;;;;;;;19.50;39.80;;;;;;505849;235;1023;-44
2021/04/23 00:46:42;;;;;;;;;;;19.50;39.80;;;;;;505293;235;1044;-44
2021/04/23 00:48:43;;;;;;;;;;;19.40;39.80;;;;;;505323;235;1055;-44
2021/04/23 00:50:44;;;;;;;;;;;19.40;39.80;;;;;;505601;236;1342;-44
2021/04/23 00:52:46;;;;;;;;;;;19.40;39.90;;;;;;505673;235;2110;-44
2021/04/23 00:54:47;;;;;;;;;;;19.40;39.90;;;;;;505845;235;1046;-44
2021/04/23 00:56:48;;;;;;;;;;;19.40;39.90;;;;;;505388;235;1257;-44
2021/04/23 00:58:50;;;;;;;;;;;19.40;40.00;;;;;;505770;234;1070;-44
2021/04/23 01:00:51;;;;;;;;;;;19.40;40.00;;;;;;505762;235;1043;-44
2021/04/23 01:02:52;;;;;;;;;;;19.40;39.90;;;;;;505515;234;1057;-44
2021/04/23 01:04:53;;;;;;;;;;;19.40;39.80;;;;;;505422;235;1049;-44
2021/04/23 01:06:55;;;;;;;;;;;19.40;39.90;;;;;;505521;235;2285;-44
2021/04/23 01:08:56;;;;;;;;;;;19.40;40.00;;;;;;505661;235;1049;-44
2021/04/23 01:10:57;;;;;;;;;;;19.40;40.00;;;;;;505763;235;1045;-44
2021/04/23 01:12:58;;;;;;;;;;;19.40;39.90;;;;;;505547;235;2170;-44
2021/04/23 01:15:00;;;;;;;;;;;19.40;40.00;;;;;;505809;235;1044;-44
2021/04/23 01:17:01;;;;;;;;;;;19.30;40.00;;;;;;505370;235;1059;-44
2021/04/23 01:19:02;;;;;;;;;;;19.30;40.00;;;;;;505646;235;1033;-45
2021/04/23 01:21:04;;;;;;;;;;;19.30;40.10;;;;;;505560;235;1062;-45
2021/04/23 01:23:05;;;;;;;;;;;19.30;40.10;;;;;;505882;235;1150;-44
2021/04/23 01:25:06;;;;;;;;;;;19.30;40.10;;;;;;505389;235;1018;-44
2021/04/23 01:27:08;;;;;;;;;;;19.30;40.10;;;;;;505577;235;1123;-45
2021/04/23 01:29:09;;;;;;;;;;;19.30;40.00;;;;;;505352;235;1081;-44
2021/04/23 01:31:12;;;;;;;;;;;19.30;40.00;;;;;;505297;235;2145;-45
2021/04/23 01:33:13;;;;;;;;;;;19.30;40.00;;;;;;505925;235;1380;-44
2021/04/23 01:35:15;;;;;;;;;;;19.30;40.00;;;;;;505534;235;1057;-44
2021/04/23 01:37:16;;;;;;;;;;;19.30;40.10;;;;;;505485;235;1231;-44
2021/04/23 01:39:17;;;;;;;;;;;19.30;40.10;;;;;;505855;235;1065;-44
2021/04/23 01:41:19;;;;;;;;;;;19.30;40.10;;;;;;505511;235;1024;-44
2021/04/23 01:43:23;;;;;;;;;;;19.30;40.10;;;;;;505315;235;1116;-44
2021/04/23 01:45:24;;;;;;;;;;;19.30;40.10;;;;;;505754;235;1070;-44
2021/04/23 01:47:25;;;;;;;;;;;19.30;40.10;;;;;;505408;235;1047;-45
2021/04/23 01:49:26;;;;;;;;;;;19.30;40.10;;;;;;505396;236;1240;-44
2021/04/23 01:51:28;;;;;;;;;;;19.30;40.20;;;;;;505629;235;2130;-45
2021/04/23 01:53:30;;;;;;;;;;;19.20;40.10;;;;;;505406;234;1108;-44
2021/04/23 01:55:34;;;;;;;;;;;19.20;40.10;;;;;;505836;235;1053;-44
2021/04/23 01:57:36;;;;;;;;;;;19.30;40.20;;;;;;505384;235;1255;-44
2021/04/23 01:59:37;;;;;;;;;;;19.30;40.30;;;;;;505845;235;1052;-44
2021/04/23 02:01:38;;;;;;;;;;;19.20;40.20;;;;;;505323;235;1045;-44
2021/04/23 02:03:39;;;;;;;;;;;19.20;40.10;;;;;;505688;234;1965;-44
2021/04/23 02:05:41;;;;;;;;;;;19.30;40.20;;;;;;505765;234;1088;-44
2021/04/23 02:07:42;;;;;;;;;;;19.20;40.20;;;;;;505631;235;1124;-44
2021/04/23 02:09:43;;;;;;;;;;;19.20;40.20;;;;;;505662;235;1061;-44
2021/04/23 02:11:45;;;;;;;;;;;19.20;40.20;;;;;;505460;235;2177;-44
2021/04/23 02:13:46;;;;;;;;;;;19.20;40.20;;;;;;505553;235;1120;-44
2021/04/23 02:15:47;;;;;;;;;;;19.20;40.30;;;;;;505774;235;1388;-44
2021/04/23 02:17:48;;;;;;;;;;;19.10;40.20;;;;;;505332;235;1071;-44
2021/04/23 02:19:50;;;;;;;;;;;19.20;40.20;;;;;;505825;235;1061;-44
2021/04/23 02:21:51;;;;;;;;;;;19.20;40.20;;;;;;505814;235;1094;-44
2021/04/23 02:23:52;;;;;;;;;;;19.20;40.30;;;;;;505637;235;1070;-44
2021/04/23 02:25:53;;;;;;;;;;;19.20;40.30;;;;;;505587;235;1030;-44
2021/04/23 02:27:55;;;;;;;;;;;19.20;40.30;;;;;;505345;235;1167;-44
2021/04/23 02:29:56;;;;;;;;;;;19.10;40.20;;;;;;505338;235;1134;-44
2021/04/23 02:31:57;;;;;;;;;;;19.20;40.30;;;;;;505347;235;2189;-44
2021/04/23 02:33:59;;;;;;;;;;;19.20;40.30;;;;;;505330;234;1061;-44
2021/04/23 02:36:00;;;;;;;;;;;19.20;40.30;;;;;;505344;235;1076;-44
2021/04/23 02:38:01;;;;;;;;;;;19.20;40.30;;;;;;505491;234;1073;-44
2021/04/23 02:40:02;;;;;;;;;;;19.20;40.20;;;;;;505460;235;1098;-45
2021/04/23 02:42:04;;;;;;;;;;;19.20;40.20;;;;;;505287;236;1134;-44
2021/04/23 02:44:05;;;;;;;;;;;19.20;40.20;;;;;;505411;235;1248;-44
2021/04/23 02:46:06;;;;;;;;;;;19.10;40.20;;;;;;505607;235;1053;-44
2021/04/23 02:48:08;;;;;;;;;;;19.10;40.20;;;;;;505342;235;1011;-44
2021/04/23 02:50:09;;;;;;;;;;;19.10;40.30;;;;;;505378;235;1023;-44
2021/04/23 02:52:10;;;;;;;;;;;19.10;40.20;;;;;;505823;235;2177;-44
2021/04/23 02:54:11;;;;;;;;;;;19.10;40.30;;;;;;505428;235;2453;-44
2021/04/23 02:56:13;;;;;;;;;;;19.10;40.30;;;;;;505877;235;1093;-44
2021/04/23 02:58:14;;;;;;;;;;;19.10;40.30;;;;;;505715;234;1163;-44
2021/04/23 03:00:15;;;;;;;;;;;19.10;40.20;;;;;;505397;234;1214;-44
2021/04/23 03:02:17;;;;;;;;;;;19.10;40.20;;;;;;505363;234;1122;-44
2021/04/23 03:04:18;;;;;;;;;;;19.20;40.20;;;;;;505796;235;1049;-44
2021/04/23 03:06:19;;;;;;;;;;;19.10;40.20;;;;;;505338;235;1124;-44
2021/04/23 03:08:20;;;;;;;;;;;19.10;40.30;;;;;;505306;235;1237;-44
2021/04/23 03:10:24;;;;;;;;;;;19.10;40.30;;;;;;505861;235;1142;-44
2021/04/23 03:12:24;;;;;;;;;;;19.10;40.30;;;;;;505351;236;2178;-44
2021/04/23 03:14:26;;;;;;;;;;;19.10;40.30;;;;;;505691;235;1128;-44
2021/04/23 03:16:27;;;;;;;;;;;19.10;40.20;;;;;;505765;235;1077;-45
2021/04/23 03:18:28;;;;;;;;;;;19.10;40.20;;;;;;505865;235;1527;-44
2021/04/23 03:20:29;;;;;;;;;;;19.10;40.30;;;;;;505935;235;1060;-44
2021/04/23 03:22:31;;;;;;;;;;;19.10;40.20;;;;;;505572;235;1077;-44
2021/04/23 03:24:32;;;;;;;;;;;19.10;40.20;;;;;;505375;235;1072;-44
2021/04/23 03:26:33;;;;;;;;;;;19.10;40.30;;;;;;505407;235;1130;-44
2021/04/23 03:28:34;;;;;;;;;;;19.10;40.30;;;;;;505568;235;1064;-44
2021/04/23 03:30:36;;;;;;;;;;;19.10;40.30;;;;;;505345;236;1215;-44
2021/04/23 03:32:37;;;;;;;;;;;19.10;40.30;;;;;;505438;235;2134;-44
2021/04/23 03:34:40;;;;;;;;;;;19.10;40.40;;;;;;505551;235;1057;-44
2021/04/23 03:36:41;;;;;;;;;;;19.10;40.40;;;;;;505637;235;1407;-44
2021/04/23 03:38:42;;;;;;;;;;;19.10;40.30;;;;;;505388;235;1041;-44
2021/04/23 03:40:44;;;;;;;;;;;19.10;40.30;;;;;;505399;235;1054;-44
2021/04/23 03:42:45;;;;;;;;;;;19.10;40.30;;;;;;505411;235;1066;-45
2021/04/23 03:44:46;;;;;;;;;;;19.10;40.30;;;;;;505679;236;1170;-44
2021/04/23 03:46:47;;;;;;;;;;;19.10;40.30;;;;;;505416;236;1045;-45
2021/04/23 03:48:50;;;;;;;;;;;19.10;40.30;;;;;;505712;235;1048;-44
2021/04/23 03:50:51;;;;;;;;;;;19.10;40.20;;;;;;505860;235;1035;-45
2021/04/23 03:52:52;;;;;;;;;;;19.20;40.20;;;;;;505488;235;2147;-44
2021/04/23 03:54:54;;;;;;;;;;;19.10;40.10;;;;;;505283;235;1173;-45
2021/04/23 03:56:55;;;;;;;;;;;19.10;40.20;;;;;;505274;235;996;-44
2021/04/23 03:58:56;;;;;;;;;;;19.10;40.20;;;;;;505308;235;1024;-44
2021/04/23 04:00:57;;;;;;;;;;;19.10;40.10;;;;;;505344;235;1172;-44
2021/04/23 04:02:59;;;;;;;;;;;19.10;40.30;;;;;;505294;235;1029;-45
2021/04/23 04:05:00;;;;;;;;;;;19.10;40.30;;;;;;505781;236;945;-45
2021/04/23 04:07:01;;;;;;;;;;;19.10;40.30;;;;;;505856;235;1054;-44
2021/04/23 04:09:03;;;;;;;;;;;19.10;40.30;;;;;;505706;235;1069;-45
2021/04/23 04:11:04;;;;;;;;;;;19.10;40.20;;;;;;505715;235;1053;-44
2021/04/23 04:13:05;;;;;;;;;;;19.10;40.10;;;;;;505598;235;2178;-45
2021/04/23 04:15:08;;;;;;;;;;;19.10;40.10;;;;;;505447;235;1183;-44
2021/04/23 04:17:09;;;;;;;;;;;19.10;40.30;;;;;;505390;235;1716;-44
2021/04/23 04:19:10;;;;;;;;;;;19.00;40.30;;;;;;505299;235;1069;-44
2021/04/23 04:21:12;;;;;;;;;;;19.10;40.30;;;;;;505903;235;1106;-45
2021/04/23 04:23:14;;;;;;;;;;;19.10;40.20;;;;;;505351;235;1104;-44
2021/04/23 04:25:14;;;;;;;;;;;19.10;40.30;;;;;;505312;235;2048;-44
2021/04/23 04:27:16;;;;;;;;;;;19.10;40.30;;;;;;505824;235;1099;-44
2021/04/23 04:29:18;;;;;;;;;;;19.10;40.20;;;;;;505762;236;1137;-44
2021/04/23 04:31:18;;;;;;;;;;;19.00;40.20;;;;;;505263;235;2230;-44
2021/04/23 04:33:19;;;;;;;;;;;19.10;40.30;;;;;;505302;235;2130;-45
2021/04/23 04:35:21;;;;;;;;;;;19.00;40.20;;;;;;505412;235;1106;-44
2021/04/23 04:37:22;;;;;;;;;;;19.00;40.30;;;;;;505200;235;1548;-44
2021/04/23 04:39:23;;;;;;;;;;;19.10;40.20;;;;;;505585;235;1224;-44
2021/04/23 04:41:25;;;;;;;;;;;19.10;40.20;;;;;;505218;235;1429;-44
2021/04/23 04:43:26;;;;;;;;;;;19.10;40.20;;;;;;505412;235;1138;-44
2021/04/23 04:45:27;;;;;;;;;;;19.10;40.30;;;;;;505287;235;2004;-44
2021/04/23 04:47:28;;;;;;;;;;;19.10;40.30;;;;;;505265;235;1130;-45
2021/04/23 04:49:30;;;;;;;;;;;19.00;40.30;;;;;;505448;236;1045;-44
2021/04/23 04:51:31;;;;;;;;;;;19.10;40.30;;;;;;505355;235;1137;-45
2021/04/23 04:53:33;;;;;;;;;;;19.10;40.20;;;;;;505364;235;2180;-44
2021/04/23 04:55:34;;;;;;;;;;;19.10;40.30;;;;;;505534;235;1058;-44
2021/04/23 04:57:35;;;;;;;;;;;19.00;40.30;;;;;;505313;235;1282;-44
2021/04/23 04:59:36;;;;;;;;;;;19.00;40.30;;;;;;505471;236;1044;-44
2021/04/23 05:01:38;;;;;;;;;;;19.00;40.30;;;;;;505351;235;1164;-44
2021/04/23 05:03:39;;;;;;;;;;;19.00;40.30;;;;;;505261;235;1056;-44
2021/04/23 05:05:40;;;;;;;;;;;19.00;40.40;;;;;;505225;235;1067;-44
2021/04/23 05:07:44;;;;;;;;;;;19.00;40.30;;;;;;505206;235;1041;-44
2021/04/23 05:09:45;;;;;;;;;;;19.00;40.30;;;;;;505132;235;1063;-44
2021/04/23 05:11:47;;;;;;;;;;;19.00;40.40;;;;;;505068;235;1159;-44
2021/04/23 05:13:48;;;;;;;;;;;19.00;40.30;;;;;;505204;236;2189;-44
2021/04/23 05:15:49;;;;;;;;;;;19.00;40.30;;;;;;505216;235;1157;-44
2021/04/23 05:17:50;;;;;;;;;;;19.00;40.30;;;;;;505024;235;1164;-44
2021/04/23 05:19:52;;;;;;;;;;;19.10;40.20;;;;;;505116;234;1098;-45
2021/04/23 05:21:53;;;;;;;;;;;19.10;40.20;;;;;;505017;235;1499;-45
2021/04/23 05:23:54;;;;;;;;;;;19.10;40.20;;;;;;505040;235;1168;-44
2021/04/23 05:25:56;;;;;;;;;;;19.00;40.20;;;;;;505142;236;1124;-44
2021/04/23 05:27:57;;;;;;;;;;;19.10;40.20;;;;;;505039;236;1825;-44
2021/04/23 05:29:58;;;;;;;;;;;19.00;40.10;;;;;;505170;236;1064;-44
2021/04/23 05:32:01;;;;;;;;;;;19.00;40.20;;;;;;505141;235;1256;-44
2021/04/23 05:34:01;;;;;;;;;;;19.00;40.20;;;;;;505313;235;2129;-44
2021/04/23 05:36:02;;;;;;;;;;;19.00;40.20;;;;;;505185;235;1152;-44
2021/04/23 05:38:04;;;;;;;;;;;19.00;40.20;;;;;;505079;235;1207;-44
2021/04/23 05:40:05;;;;;;;;;;;19.10;40.10;;;;;;505097;235;1100;-44
2021/04/23 05:42:06;;;;;;;;;;;19.10;40.10;;;;;;505035;236;1037;-45
2021/04/23 05:44:09;;;;;;;;;;;19.10;40.00;;;;;;505338;235;1091;-44
2021/04/23 05:46:10;;;;;;;;;;;19.20;40.00;;;;;;505264;235;1143;-45
2021/04/23 05:48:12;;;;;;;;;;;19.10;39.90;;;;;;505344;235;1093;-44
2021/04/23 05:50:13;;;;;;;;;;;19.10;39.90;;;;;;505053;235;1096;-44
2021/04/23 05:52:15;;;;;;;;;;;19.20;39.90;;;;;;505028;235;1078;-44
2021/04/23 05:54:16;;;;;;;;;;;19.20;39.80;;;;;;504914;235;2178;-44
2021/04/23 05:56:17;;;;;;;;;;;19.20;39.80;;;;;;504888;235;1174;-44
2021/04/23 05:58:19;;;;;;;;;;;19.30;39.70;;;;;;505242;235;1095;-44
2021/04/23 06:00:20;;;;;;;;;;;19.20;39.70;;;;;;505018;235;1129;-45
2021/04/23 06:02:21;;;;;;;;;;;19.20;39.80;;;;;;505053;235;1160;-44
2021/04/23 06:04:22;;;;;;;;;;;19.10;39.80;;;;;;505014;235;1159;-44
2021/04/23 06:06:24;;;;;;;;;;;19.10;39.90;;;;;;505034;235;1177;-44
2021/04/23 06:08:27;;;;;;;;;;;19.10;40.00;;;;;;505378;235;1076;-44
2021/04/23 06:10:29;;;;;;;;;;;18.90;40.30;;;;;;505242;235;1122;-44
2021/04/23 06:12:30;;;;;;;;;;;18.80;40.60;;;;;;504848;236;1088;-44
2021/04/23 06:14:32;;;;;;;;;;;18.70;40.60;;;;;;504847;235;2134;-44
2021/04/23 06:16:33;;;;;;;;;;;18.70;40.70;;;;;;504825;235;1147;-45
2021/04/23 06:18:34;;;;;;;;;;;18.70;40.80;;;;;;505203;235;1212;-44
2021/04/23 06:20:35;;;;;;;;;;;18.70;40.70;;;;;;504969;235;1071;-44
2021/04/23 06:22:37;;;;;;;;;;;18.70;40.70;;;;;;504868;235;1183;-44
2021/04/23 06:24:38;;;;;;;;;;;18.70;40.70;;;;;;504723;235;1127;-44
2021/04/23 06:26:40;;;;;;;;;;;18.70;40.70;;;;;;504914;235;1123;-44
2021/04/23 06:28:41;;;;;;;;;;;18.60;40.70;;;;;;504835;235;1177;-44
2021/04/23 06:30:42;;;;;;;;;;;18.70;40.80;;;;;;504889;235;1086;-44
2021/04/23 06:32:45;;;;;;;;;;;18.60;40.80;;;;;;504864;235;1235;-44
2021/04/23 06:34:45;;;;;;;;;;;18.60;40.80;;;;;;504896;235;2202;-44
2021/04/23 06:36:46;;;;;;;;;;;18.50;41.00;;;;;;504641;235;1232;-44
2021/04/23 06:38:47;;;;;;;;;;;18.40;41.20;;;;;;504611;235;1107;-44
2021/04/23 06:40:50;;;;;;;;;;;18.40;41.30;;;;;;504634;235;1113;-44
2021/04/23 06:42:51;;;;;;;;;;;18.40;41.30;;;;;;505044;235;2014;-44
2021/04/23 06:44:52;;;;;;;;;;;18.40;41.20;;;;;;504954;235;1071;-45
2021/04/23 06:46:53;;;;;;;;;;;18.40;41.30;;;;;;504821;234;1534;-44
2021/04/23 06:48:54;;;;;;;;;;;18.40;41.30;;;;;;504705;235;1158;-44
2021/04/23 06:50:56;;;;;;;;;;;18.40;41.30;;;;;;504772;234;1273;-44
2021/04/23 06:52:57;;;;;;;;;;;18.40;41.20;;;;;;504780;235;2131;-44
2021/04/23 06:54:58;;;;;;;;;;;18.40;41.20;;;;;;504749;235;1112;-44
2021/04/23 06:57:00;;;;;;;;;;;18.40;41.10;;;;;;504847;235;1099;-44
2021/04/23 06:59:01;;;;;;;;;;;18.40;41.10;;;;;;504933;235;1127;-44
2021/04/23 07:01:03;;;;;;;;;;;18.50;41.10;;;;;;504859;235;1308;-44
2021/04/23 07:03:04;;;;;;;;;;;18.40;41.20;;;;;;504949;235;1239;-45
2021/04/23 07:05:05;;;;;;;;;;;18.40;41.20;;;;;;504978;235;1062;-44
2021/04/23 07:07:06;;;;;;;;;;;18.40;41.30;;;;;;505073;235;1073;-44
2021/04/23 07:09:08;;;;;;;;;;;18.40;41.20;;;;;;504904;235;1040;-44
2021/04/23 07:11:09;;;;;;;;;;;18.30;41.20;;;;;;504762;235;1082;-45
2021/04/23 07:13:10;;;;;;;;;;;18.30;41.30;;;;;;505028;235;2177;-44
2021/04/23 07:15:11;;;;;;;;;;;18.30;41.30;;;;;;504792;235;1277;-44
2021/04/23 07:17:13;;;;;;;;;;;18.30;41.30;;;;;;504667;235;1167;-44
2021/04/23 07:19:14;;;;;;;;;;;18.30;41.40;;;;;;504683;235;1076;-44
2021/04/23 07:21:15;;;;;;;;;;;18.30;41.30;;;;;;504764;235;1108;-44
2021/04/23 07:23:17;;;;;;;;;;;18.60;40.80;;;;;;504786;234;1153;-44
2021/04/23 07:25:18;;;;;;;;;;;18.90;40.20;;;;;;504776;235;1384;-45
2021/04/23 07:27:19;;;;;;;;;;;19.20;39.50;;;;;;504911;235;1263;-44
2021/04/23 07:29:20;;;;;;;;;;;19.40;39.20;;;;;;504679;236;1103;-45
2021/04/23 07:31:22;;;;;;;;;;;19.50;38.90;;;;;;504633;236;1276;-44
2021/04/23 07:33:23;;;;;;;;;;;19.60;38.60;;;;;;504630;235;2185;-44
2021/04/23 07:35:24;;;;;;;;;;;19.70;38.50;;;;;;504547;235;1171;-44
2021/04/23 07:37:26;;;;;;;;;;;19.80;38.40;;;;;;504441;235;1189;-44
2021/04/23 07:39:27;;;;;;;;;;;19.80;38.10;;;;;;504645;236;1144;-45
2021/04/23 07:41:28;;;;;;;;;;;19.90;38.00;;;;;;504464;236;1098;-44
2021/04/23 07:43:29;;;;;;;;;;;20.00;37.90;;;;;;504572;235;1325;-45
2021/04/23 07:45:31;;;;;;;;;;;20.00;37.80;;;;;;504526;236;1112;-44
2021/04/23 07:47:32;;;;;;;;;;;20.00;37.80;;;;;;504585;235;1183;-44
2021/04/23 07:49:33;;;;;;;;;;;20.10;37.70;;;;;;504506;235;1089;-44
2021/04/23 07:51:35;;;;;;;;;;;20.20;37.60;;;;;;504467;235;1124;-44
2021/04/23 07:53:36;;;;;;;;;;;20.20;37.50;;;;;;504540;235;2189;-44
2021/04/23 07:55:38;;;;;;;;;;;20.20;37.50;;;;;;504672;235;1411;-44
2021/04/23 07:57:38;;;;;;;;;;;20.20;37.40;;;;;;504534;235;2091;-45
2021/04/23 07:59:40;;;;;;;;;;;20.30;37.30;;;;;;504443;235;1074;-44
2021/04/23 08:01:41;;;;;;;;;;;20.30;37.30;;;;;;504531;235;1214;-44
2021/04/23 08:03:43;;;;;;;;;;;20.30;37.20;;;;;;504630;236;1222;-45
2021/04/23 08:05:44;;;;;;;;;;;20.40;37.20;;;;;;504685;235;1150;-45
2021/04/23 08:07:45;;;;;;;;;;;20.40;37.10;;;;;;504828;235;1245;-45
2021/04/23 08:09:47;;;;;;;;;;;20.40;37.10;;;;;;504425;236;1306;-44
2021/04/23 08:11:48;;;;;;;;;;;20.40;37.10;;;;;;504427;235;1348;-44
2021/04/23 08:13:49;;;;;;;;;;;20.40;37.10;;;;;;504625;234;2174;-45
2021/04/23 08:15:51;;;;;;;;;;;20.40;37.00;;;;;;504807;235;1123;-44
2021/04/23 08:17:52;;;;;;;;;;;20.50;37.10;;;;;;504906;235;1189;-45
2021/04/23 08:19:53;;;;;;;;;;;20.50;37.00;;;;;;504384;235;1142;-44
2021/04/23 08:21:56;;;;;;;;;;;20.50;37.00;;;;;;504716;236;1182;-44
2021/04/23 08:23:57;;;;;;;;;;;20.60;36.90;;;;;;505200;235;1127;-44
2021/04/23 08:26:02;;;;;;;;;;;20.60;36.90;;;;;;504761;235;1244;-45
2021/04/23 08:28:00;;;;;;;;;;;20.60;36.90;;;;;;504582;235;2118;-44
2021/04/23 08:30:01;;;;;;;;;;;20.60;36.90;;;;;;504558;235;1167;-44
2021/04/23 08:32:03;;;;;;;;;;;20.60;36.90;;;;;;504715;235;1151;-45
2021/04/23 08:34:04;;;;;;;;;;;20.60;36.80;;;;;;504558;235;2178;-45
2021/04/23 08:36:05;;;;;;;;;;;20.60;36.80;;;;;;504435;235;1289;-45
2021/04/23 08:38:06;;;;;;;;;;;20.60;36.80;;;;;;504975;235;1700;-45
2021/04/23 08:40:08;;;;;;;;;;;20.60;36.70;;;;;;504369;234;1112;-44
2021/04/23 08:42:09;;;;;;;;;;;20.70;36.80;;;;;;504757;235;1299;-44
2021/04/23 08:44:10;;;;;;;;;;;20.70;36.70;;;;;;504837;235;1074;-44
2021/04/23 08:46:12;;;;;;;;;;;20.70;36.70;;;;;;504568;235;1168;-44
2021/04/23 08:48:13;;;;;;;;;;;20.80;36.70;;;;;;504708;235;1144;-44
2021/04/23 08:50:14;;;;;;;;;;;20.80;36.70;;;;;;504620;235;1085;-45
2021/04/23 08:52:15;;;;;;;;;;;20.80;36.70;;;;;;504600;235;1203;-45
2021/04/23 08:54:17;;;;;;;;;;;20.80;36.70;;;;;;504711;235;2123;-44
2021/04/23 08:56:18;;;;;;;;;;;20.80;36.70;;;;;;504673;235;1139;-44
2021/04/23 08:58:19;;;;;;;;;;;20.80;36.60;;;;;;504591;236;1107;-45
2021/04/23 09:00:21;;;;;;;;;;;20.80;36.60;;;;;;504685;235;1187;-44
2021/04/23 09:02:22;;;;;;;;;;;20.80;36.60;;;;;;504764;235;1046;-44
2021/04/23 09:04:23;;;;;;;;;;;20.90;36.60;;;;;;504480;235;1186;-45
2021/04/23 09:06:25;;;;;;;;;;;20.90;36.50;;;;;;504396;235;1079;-45
2021/04/23 09:08:26;;;;;;;;;;;20.90;36.50;;;;;;504528;235;1135;-45
2021/04/23 09:10:28;;;;;;;;;;;20.90;36.50;;;;;;504402;235;1112;-45
2021/04/23 09:12:29;;;;;;;;;;;20.90;36.50;;;;;;504391;235;1200;-44
2021/04/23 09:14:30;;;;;;;;;;;20.90;36.50;;;;;;504679;235;2125;-44
2021/04/23 09:16:31;;;;;;;;;;;20.90;36.50;;;;;;504824;235;1167;-45
2021/04/23 09:18:33;;;;;;;;;;;20.90;36.40;;;;;;504704;235;1112;-45
2021/04/23 09:20:34;;;;;;;;;;;21.00;36.40;;;;;;504673;235;1154;-45
2021/04/23 09:22:35;;;;;;;;;;;20.90;36.40;;;;;;504643;236;1088;-44
2021/04/23 09:24:36;;;;;;;;;;;20.90;36.40;;;;;;504212;235;1799;-45
2021/04/23 09:26:38;;;;;;;;;;;21.00;36.50;;;;;;504754;235;1075;-44
2021/04/23 09:28:39;;;;;;;;;;;21.00;36.50;;;;;;504632;234;1124;-44
2021/04/23 09:30:42;;;;;;;;;;;21.00;36.40;;;;;;504598;235;1131;-45
2021/04/23 09:32:42;;;;;;;;;;;21.00;36.40;;;;;;504597;235;1941;-44
2021/04/23 09:34:43;;;;;;;;;;;21.00;36.40;;;;;;504537;235;2189;-45
2021/04/23 09:36:45;;;;;;;;;;;21.00;36.40;;;;;;504464;235;1089;-45
2021/04/23 09:38:46;;;;;;;;;;;21.00;36.30;;;;;;504640;235;1776;-45
2021/04/23 09:40:47;;;;;;;;;;;21.00;36.30;;;;;;504632;235;1070;-44
2021/04/23 09:42:48;;;;;;;;;;;21.00;36.30;;;;;;504654;235;1271;-45
2021/04/23 09:44:50;;;;;;;;;;;21.00;36.30;;;;;;504642;235;1337;-44
2021/04/23 09:46:51;;;;;;;;;;;21.00;36.30;;;;;;504680;235;1091;-44
2021/04/23 09:48:53;;;;;;;;;;;21.10;36.30;;;;;;504737;235;1079;-45
2021/04/23 09:50:55;;;;;;;;;;;21.10;36.30;;;;;;504700;235;1193;-44
2021/04/23 09:52:56;;;;;;;;;;;21.10;36.30;;;;;;504710;236;1382;-44
2021/04/23 09:54:57;;;;;;;;;;;21.10;36.30;;;;;;504640;235;2221;-44
2021/04/23 09:56:59;;;;;;;;;;;21.10;36.30;;;;;;504774;235;1159;-44
2021/04/23 09:59:00;;;;;;;;;;;21.10;36.30;;;;;;504545;235;1092;-45
2021/04/23 10:01:02;;;;;;;;;;;21.10;36.30;;;;;;504600;235;1123;-44
2021/04/23 10:03:03;;;;;;;;;;;21.10;36.30;;;;;;504506;235;1106;-45
2021/04/23 10:05:04;;;;;;;;;;;21.10;36.20;;;;;;504390;235;1116;-45
2021/04/23 10:07:06;;;;;;;;;;;21.20;36.30;;;;;;504543;235;1068;-44
2021/04/23 10:09:07;;;;;;;;;;;21.10;36.20;;;;;;504657;235;1130;-45
2021/04/23 10:11:09;;;;;;;;;;;21.20;36.20;;;;;;504727;235;1189;-44
2021/04/23 10:13:12;;;;;;;;;;;21.20;36.20;;;;;;504723;235;1173;-44
2021/04/23 10:15:12;;;;;;;;;;;21.20;36.20;;;;;;504312;235;2190;-44
2021/04/23 10:17:14;;;;;;;;;;;21.20;36.20;;;;;;504527;235;1144;-45
2021/04/23 10:19:15;;;;;;;;;;;21.20;36.20;;;;;;504590;235;1115;-45
2021/04/23 10:21:17;;;;;;;;;;;21.20;36.20;;;;;;504610;235;1182;-45
2021/04/23 10:23:18;;;;;;;;;;;21.20;36.20;;;;;;504749;235;1171;-45
2021/04/23 10:25:19;;;;;;;;;;;21.20;36.20;;;;;;504489;235;1116;-45
2021/04/23 10:27:21;;;;;;;;;;;21.20;36.20;;;;;;504471;235;1405;-45
2021/04/23 10:29:22;;;;;;;;;;;21.20;36.20;;;;;;504485;235;1191;-45
2021/04/23 10:31:23;;;;;;;;;;;21.20;36.20;;;;;;504458;235;1214;-44
2021/04/23 10:33:25;;;;;;;;;;;21.20;36.20;;;;;;504562;235;1090;-45
2021/04/23 10:35:26;;;;;;;;;;;21.20;36.20;;;;;;504399;235;2189;-45
2021/04/23 10:37:27;;;;;;;;;;;21.20;36.20;;;;;;504463;235;1158;-45
2021/04/23 10:39:29;;;;;;;;;;;21.20;36.20;;;;;;504643;235;1312;-45
2021/04/23 10:41:30;;;;;;;;;;;21.20;36.20;;;;;;504773;235;1237;-45
2021/04/23 10:43:31;;;;;;;;;;;21.20;36.20;;;;;;504766;235;1208;-45
2021/04/23 10:45:35;;;;;;;;;;;21.20;36.20;;;;;;504666;235;1106;-45
2021/04/23 10:47:35;;;;;;;;;;;21.20;36.20;;;;;;504694;235;1848;-45
2021/04/23 10:49:36;;;;;;;;;;;21.20;36.20;;;;;;504721;235;1161;-45
2021/04/23 10:51:38;;;;;;;;;;;21.20;36.10;;;;;;504636;235;1160;-45
2021/04/23 10:53:43;;;;;;;;;;;21.20;36.10;;;;;;504669;235;1097;-45
2021/04/23 10:55:44;;;;;;;;;;;21.30;36.10;;;;;;504620;235;2224;-45
2021/04/23 10:57:45;;;;;;;;;;;21.30;36.10;;;;;;504560;235;1069;-45
2021/04/23 10:59:46;;;;;;;;;;;21.20;36.10;;;;;;504774;235;1077;-45
2021/04/23 11:01:48;;;;;;;;;;;21.30;36.10;;;;;;504761;235;1125;-45
2021/04/23 11:03:49;;;;;;;;;;;21.30;36.10;;;;;;504816;235;1279;-45
2021/04/23 11:05:51;;;;;;;;;;;21.20;36.10;;;;;;504717;235;1177;-45
2021/04/23 11:07:52;;;;;;;;;;;21.30;36.10;;;;;;504784;235;1094;-45
2021/04/23 11:09:53;;;;;;;;;;;21.30;36.10;;;;;;504700;235;1062;-45
2021/04/23 11:11:54;;;;;;;;;;;21.30;36.10;;;;;;504711;235;1148;-45
2021/04/23 11:13:56;;;;;;;;;;;21.30;36.10;;;;;;504743;235;1299;-45
2021/04/23 11:15:57;;;;;;;;;;;21.30;36.10;;;;;;504742;235;2149;-45
2021/04/23 11:17:58;;;;;;;;;;;21.30;36.10;;;;;;504787;235;1257;-45
2021/04/23 11:20:00;;;;;;;;;;;21.30;36.10;;;;;;504747;235;1139;-45
2021/04/23 11:22:01;;;;;;;;;;;21.30;36.10;;;;;;504678;235;1159;-45
2021/04/23 11:24:02;;;;;;;;;;;21.30;36.10;;;;;;504633;235;1063;-45
2021/04/23 11:26:03;;;;;;;;;;;21.30;36.10;;;;;;504598;235;1088;-45
2021/04/23 11:28:06;;;;;;;;;;;21.30;36.10;;;;;;504833;235;1177;-45
2021/04/23 11:30:08;;;;;;;;;;;21.30;36.10;;;;;;504580;235;1247;-45
2021/04/23 11:32:08;;;;;;;;;;;21.30;36.10;;;;;;504494;235;2093;-45
2021/04/23 11:34:09;;;;;;;;;;;21.30;36.10;;;;;;504626;235;1150;-45
2021/04/23 11:36:11;;;;;;;;;;;21.30;36.10;;;;;;504659;235;2192;-45
2021/04/23 11:38:12;;;;;;;;;;;21.30;36.00;;;;;;504691;235;1073;-45
2021/04/23 11:40:14;;;;;;;;;;;21.30;36.10;;;;;;504618;235;1087;-45
2021/04/23 11:42:15;;;;;;;;;;;21.30;36.00;;;;;;504563;235;1142;-45
2021/04/23 11:44:16;;;;;;;;;;;21.30;36.00;;;;;;504853;235;1073;-45
2021/04/23 11:46:18;;;;;;;;;;;21.30;36.00;;;;;;504875;235;1150;-45
2021/04/23 11:48:19;;;;;;;;;;;21.30;36.00;;;;;;504918;235;1120;-45
2021/04/23 11:50:20;;;;;;;;;;;21.40;36.00;;;;;;504649;235;1428;-45
2021/04/23 11:52:22;;;;;;;;;;;21.40;36.00;;;;;;504647;235;1278;-45
2021/04/23 11:54:23;;;;;;;;;;;21.40;36.10;;;;;;504609;235;1129;-45
2021/04/23 11:56:25;;;;;;;;;;;21.40;36.10;;;;;;504520;235;2181;-45